Afton, California
Current Conditions -  °F | °C
As of 10:53 AM on Thursday 23 Oct 2014 (Local Time) from KOVE Reporting Station
Few Clouds Few Clouds  
Wind Chill: 64°   Ceiling: Unl
Heat Index: 64°   Visibility: 10mi
Dew Point: 50°   Wind: 9mph
Humidity: 60%   Direction: 110°ESE
Pressure: 30.08"   Gusts: NA
Location:  39.4608°N, 121.937°W
Report Text: KOVE 231753Z AUTO 11008KT 10SM FEW120 18/10 A3008 RMK AO2 SLP186 T01780100 10178 20150 50009
Loading
Personal Weather Stations






























Interactive Weather Map New forecast layout! Learn more

10-Day Weather Forecast

Advertisements
Track Severe Weather on mobile